Metar Aviation Weather Data ENHD

18°C Temp
15°C Dewpoint
% Humidity
Temperature
21 KM/H
13 MPH
11 KTS
180°
Due South

Wind Speed
Mostly Scattered
Clouds
Pressure 1024.92 (hPa) - 30.27 (in)
Visibility 6.2 (mi) - 10 (km)

Current Conditions
ENHD
Metar :ENHD 100920Z 18011KT 9999 SCT009 BKN013 18/15 Q1025
Wed 10th August 11:20 am

  Metar Aviation API Data Provided by https://www.checkwx.com/ PHP scripts by weather34.com ©2022